Latest Coastal Weather Observations for Willis Island

IDQ60701

Issued at 6:24 pm EST Friday 27 March 2015 (issued every 10 minutes, with the page automatically refreshed every 10 minutes)

About coastal observations | Map of coastal stations | Coastal observations for QLD | Marine services | Other Formats
Station Details ID: 200283 Name: WILLIS ISLAND Lat: -16.29 Lon: 149.97 Height: 9.29 m
Data from the previous 72 hours. | See also: Recent months at Willis Island
Date/Time
EST
Temp

°C
Wind Pressure Rain
since 9am
mm
Weather Cloud Vis
km
Sea
Height
m
Swell
Dir
 
Speed
knots
Gust
knots
hPa Trend Height
m
Period
s
Dir
27/06:00pm 27.1 SE 14 16 1013.1 R 0.4 Fine Partly cloudy 40 1 0.8 7 SE
27/05:30pm 27.4 SE 14 17 1012.7 - 0.4 - - - - - - -
27/05:00pm 27.9 SE 15 18 1012.3 - 0.4 - - - - - - -
27/04:30pm 28.2 SE 15 17 1012.0 - 0.4 - - - - - - -
27/04:00pm 28.4 ESE 15 18 1011.7 - 0.4 - - - - - - -
27/03:30pm 28.8 ESE 16 18 1011.7 - 0.4 - - - - - - -
27/03:00pm 29.2 ESE 16 18 1011.8 F 0.4 Fine Mostly clear 40 1 1.0 5 SE
27/02:30pm 29.4 ESE 17 19 1011.9 - 0.4 - - - - - - -
27/02:00pm 29.2 ESE 17 19 1012.0 - 0.4 - - - - - - -
27/01:30pm 29.5 ESE 15 19 1012.4 - 0.4 - - - - - - -
27/01:00pm 29.8 ESE 15 18 1012.8 - 0.4 - - - - - - -
27/12:30pm 29.5 ESE 16 18 1013.4 - 0.4 - - - - - - -
27/12:00pm 29.5 ESE 16 19 1014.1 F 0.4 Fine Mostly clear 40 1 0.8 6 E
27/11:30am 29.2 ESE 17 19 1014.7 - 0.4 - - - - - - -
27/11:00am 29.0 ESE 15 19 1015.2 - 0.2 - - - - - - -
27/10:30am 27.8 SE 10 12 1015.6 - 0.2 - - - - - - -
27/10:00am 26.8 ESE 9 11 1015.8 - 0.2 - - - - - - -
27/09:30am 24.8 E 19 23 1016.0 - 0.2 - - - - - - -
27/09:15am 23.8 E 19 22 1016.5 - 0.2 - - - - - - -
27/09:07am 26.1 SE 23 28 1016.4 - 0.0 - - - - - - -
27/09:00am 26.8 SSE 18 21 1016.2 R 0.2 Showers Mostly cloudy 30 1 0.8 7 E
27/08:30am 27.1 SSE 15 18 1016.0 - 0.2 - - - - - - -
27/08:00am 27.5 S 15 16 1015.7 - 0.2 - - - - - - -
27/07:30am 27.6 SE 16 18 1015.5 - 0.2 - - - - - - -
27/07:00am 26.8 SE 11 13 1015.1 - 0.2 - - - - - - -
27/06:30am 26.5 SE 13 15 1014.8 - 0.2 - - - - - - -
27/06:00am 25.9 E 16 18 1014.5 - 0.2 - - - - - - -
27/05:30am 26.2 E 18 20 1014.2 - 0.2 - - - - - - -
27/05:00am 25.9 E 21 25 1014.1 - 0.2 - - - - - - -
27/04:56am 26.0 E 21 23 1014.1 - 0.2 - - - - - - -
27/04:33am 26.5 SE 17 27 1013.8 - 0.0 - - - - - - -
27/04:30am 26.9 SE 15 18 1013.8 - 0.0 - - - - - - -
27/04:00am 26.8 ESE 14 16 1013.6 - 0.0 - - - - - - -
27/03:30am 26.8 SE 13 15 1013.5 - 0.0 - - - - - - -
27/03:00am 26.9 ESE 13 16 1013.6 - 0.0 - - - - - - -
27/02:30am 26.8 SE 13 15 1013.8 - 0.0 - - - - - - -
27/02:00am 26.6 SE 13 16 1014.0 - 0.0 - - - - - - -
27/01:30am 26.9 SE 14 16 1014.2 - 0.0 - - - - - - -
27/01:00am 27.0 SE 13 15 1014.4 - 0.0 - - - - - - -
27/12:30am 27.1 SE 13 16 1014.5 - 0.0 - - - - - - -
27/12:00am 27.2 SE 14 17 1014.7 - 0.0 - - - - - - -
 
Date/Time
EST
Temp

°C
Wind Pressure Rain
since 9am
mm
Weather Cloud Vis
km
Sea
Height
m
Swell
Dir
 
Speed
knots
Gust
knots
hPa Trend Height
m
Period
s
Dir
26/11:30pm 27.2 SE 15 18 1014.9 - 0.0 - - - - - - -
26/11:00pm 27.1 SE 15 18 1014.9 - 0.0 - - - - - - -
26/10:30pm 27.2 SE 15 18 1015.0 - 0.0 - - - - - - -
26/10:00pm 27.1 SE 14 16 1015.0 - 0.0 - - - - - - -
26/09:30pm 27.1 SE 14 15 1015.0 - 0.0 - - - - - - -
26/09:00pm 27.1 SE 14 17 1015.0 - 0.0 - - - - - - -
26/08:30pm 27.2 SE 15 17 1014.9 - 0.0 - - - - - - -
26/08:00pm 27.2 SE 15 17 1014.7 - 0.0 - - - - - - -
26/07:30pm 27.1 SE 14 16 1014.4 - 0.0 - - - - - - -
26/07:00pm 27.2 SE 14 16 1014.1 - 0.0 - - - - - - -
26/06:30pm 27.1 SE 13 15 1013.9 - 0.0 - - - - - - -
26/06:00pm 27.3 SE 14 15 1013.6 R 0.0 Fine Mostly clear 40 1 0.6 10 E
26/05:30pm 27.6 SE 13 16 1013.2 - 0.0 - - - - - - -
26/05:00pm 28.1 SE 14 16 1012.8 - 0.0 - - - - - - -
26/04:30pm 27.8 SE 14 16 1012.6 - 0.0 - - - - - - -
26/04:00pm 28.9 SE 13 16 1012.5 - 0.0 - - - - - - -
26/03:30pm 29.0 SE 13 15 1012.3 - 0.0 - - - - - - -
26/03:00pm 29.2 SE 13 15 1012.4 F 0.0 Fine Mostly clear 40 1 0.6 11 E
26/02:30pm 28.6 SE 13 16 1012.6 - 0.0 - - - - - - -
26/02:00pm 29.3 ESE 13 16 1012.7 - 0.0 - - - - - - -
26/01:30pm 29.3 SE 14 17 1013.0 - 0.0 - - - - - - -
26/01:00pm 29.5 SE 13 16 1013.3 - 0.0 - - - - - - -
26/12:30pm 28.9 SE 13 15 1013.9 - 0.0 - - - - - - -
26/12:00pm 28.8 SE 13 15 1014.3 F 0.0 Fine Mostly clear 40 1 0.6 9 E
26/11:30am 29.6 SE 13 15 1014.7 - 0.0 - - - - - - -
26/11:00am 29.4 SE 13 15 1015.0 - 0.0 - - - - - - -
26/10:30am 29.3 ESE 13 15 1015.2 - 0.0 - - - - - - -
26/10:00am 29.4 SE 13 16 1015.2 - 0.0 - - - - - - -
26/09:30am 29.1 SE 13 15 1015.2 - 0.0 - - - - - - -
26/09:00am 28.9 ESE 12 14 1015.3 F 0.0 Fine Mostly clear 40 1 0.5 9 SE
26/08:30am 28.6 ESE 13 16 1015.2 - 0.0 - - - - - - -
26/08:00am 28.4 SE 13 15 1015.1 - 0.0 - - - - - - -
26/07:30am 27.6 ESE 13 15 1014.9 - 0.0 - - - - - - -
26/07:00am 27.5 ESE 14 16 1014.6 - 0.0 - - - - - - -
26/06:30am 26.8 ESE 14 16 1014.4 - 0.0 - - - - - - -
26/06:00am 26.6 ESE 14 16 1014.0 - 0.0 - - - - - - -
26/05:30am 26.8 ESE 15 17 1013.8 - 0.0 - - - - - - -
26/05:00am 26.7 E 15 18 1013.7 - 0.0 - - - - - - -
26/04:30am 26.7 ESE 17 19 1013.3 - 0.0 - - - - - - -
26/04:00am 26.8 ESE 17 19 1013.2 - 0.0 - - - - - - -
26/03:30am 26.9 ESE 17 19 1013.1 - 0.0 - - - - - - -
26/03:00am 27.0 ESE 15 17 1013.2 - 0.0 - - - - - - -
26/02:30am 26.9 SE 14 17 1013.3 - 0.0 - - - - - - -
26/02:00am 26.8 SE 14 16 1013.5 - 0.0 - - - - - - -
26/01:30am 26.5 SE 17 21 1013.7 - 0.0 - - - - - - -
26/01:00am 26.9 ESE 14 16 1014.1 - 0.0 - - - - - - -
26/12:30am 26.9 SE 15 17 1014.4 - 0.0 - - - - - - -
26/12:00am 27.0 SE 15 17 1014.6 - 0.0 - - - - - - -
 
Date/Time
EST
Temp

°C
Wind Pressure Rain
since 9am
mm
Weather Cloud Vis
km
Sea
Height
m
Swell
Dir
 
Speed
knots
Gust
knots
hPa Trend Height
m
Period
s
Dir
25/11:30pm 27.1 SE 16 19 1014.8 - 0.0 - - - - - - -
25/11:00pm 26.8 SE 14 16 1015.1 - 0.0 - - - - - - -
25/10:30pm 27.2 SE 16 19 1015.1 - 0.0 - - - - - - -
25/10:00pm 27.1 SE 15 16 1015.1 - 0.0 - - - - - - -
25/09:30pm 27.2 SE 15 17 1015.1 - 0.0 - - - - - - -
25/09:00pm 27.0 SE 13 16 1014.9 - 0.0 - - - - - - -
25/08:30pm 27.0 SE 15 17 1014.7 - 0.0 - - - - - - -
25/08:00pm 27.1 SE 12 14 1014.2 - 0.0 - - - - - - -
25/07:30pm 27.0 SE 14 16 1014.1 - 0.0 - - - - - - -
25/07:00pm 26.9 SE 12 15 1013.7 - 0.0 - - - - - - -
25/06:30pm 27.1 SE 11 13 1013.4 - 0.0 - - - - - - -
25/06:00pm 27.0 SSE 13 15 1013.0 R 0.0 Distant precip. Mostly clear 40 <0.5 0.3 7 E
25/05:30pm 27.3 SE 11 13 1012.7 - 0.0 - - - - - - -
25/05:00pm 27.5 SE 12 14 1012.5 - 0.0 - - - - - - -
25/04:30pm 27.7 ESE 12 13 1012.4 - 0.0 - - - - - - -
25/04:00pm 27.3 S 8 11 1012.4 - 0.0 - - - - - - -
25/03:30pm 29.5 SE 8 11 1012.2 - 0.0 - - - - - - -
25/03:00pm 28.5 SE 9 11 1012.2 S 0.0 Distant precip. Mostly clear 40 <0.5 0.3 7 E
25/02:30pm 29.3 SE 11 13 1012.4 - 0.0 - - - - - - -
25/02:00pm 28.8 SSE 10 13 1012.5 - 0.0 - - - - - - -
25/01:30pm 29.3 SSE 10 11 1012.8 - 0.0 - - - - - - -
25/01:00pm 29.4 SSE 11 13 1013.1 - 0.0 - - - - - - -
25/12:30pm 29.3 SSE 9 11 1013.6 - 0.0 - - - - - - -
25/12:00pm 28.8 SSE 7 9 1013.9 F 0.0 Fine Mostly clear 40 <0.5 0.3 6 E
25/11:30am 29.5 SE 7 8 1014.4 - 0.0 - - - - - - -
25/11:00am 29.4 SE 7 8 1014.6 - 0.0 - - - - - - -
25/10:30am 29.1 ESE 7 8 1014.9 - 0.0 - - - - - - -
25/10:00am 29.1 ESE 8 9 1015.1 - 0.0 - - - - - - -
25/09:30am 28.7 ESE 8 10 1015.2 - 0.0 - - - - - - -
25/09:00am 28.4 ESE 7 8 1015.3 R 0.0 Fine Mostly clear 40 <0.5 0.3 7 E
25/08:30am 28.6 ESE 7 8 1015.2 - 0.0 - - - - - - -
25/08:00am 28.1 ESE 7 9 1015.0 - 0.0 - - - - - - -
25/07:30am 27.5 ESE 7 8 1014.6 - 0.0 - - - - - - -
25/07:00am 27.1 ESE 8 10 1014.3 - 0.0 - - - - - - -
25/06:30am 26.1 ESE 8 10 1014.0 - 0.0 - - - - - - -
25/06:00am 25.9 ESE 7 9 1013.7 - 0.0 - - - - - - -
25/05:30am 25.9 SE 7 9 1013.5 - 0.0 - - - - - - -
25/05:00am 26.0 ESE 8 10 1013.3 - 0.0 - - - - - - -
25/04:30am 25.9 ESE 7 9 1013.1 - 0.0 - - - - - - -
25/04:00am 25.9 SE 7 9 1013.2 - 0.0 - - - - - - -
25/03:30am 25.8 SE 6 7 1013.1 - 0.0 - - - - - - -
25/03:00am 25.8 SE 6 9 1013.2 - 0.0 - - - - - - -
25/02:30am 25.7 SE 7 8 1013.3 - 0.0 - - - - - - -
25/02:00am 25.9 SE 8 10 1013.4 - 0.0 - - - - - - -
25/01:30am 26.0 SE 8 10 1013.4 - 0.0 - - - - - - -
25/01:00am 25.9 SE 7 9 1013.7 - 0.0 - - - - - - -
25/12:30am 26.1 SE 7 9 1014.1 - 0.0 - - - - - - -
25/12:00am 25.9 SE 8 9 1014.2 - 0.0 - - - - - - -
 
Date/Time
EST
Temp

°C
Wind Pressure Rain
since 9am
mm
Weather Cloud Vis
km
Sea
Height
m
Swell
Dir
 
Speed
knots
Gust
knots
hPa Trend Height
m
Period
s
Dir
24/11:30pm 26.3 SE 8 10 1014.4 - 0.0 - - - - - - -
24/11:00pm 26.3 SE 9 10 1014.6 - 0.0 - - - - - - -
24/10:30pm 26.5 SE 9 11 1014.6 - 0.0 - - - - - - -
24/10:00pm 26.6 SE 11 12 1014.7 - 0.0 - - - - - - -
24/09:30pm 26.5 SE 11 12 1014.5 - 0.0 - - - - - - -
24/09:00pm 26.6 SE 11 13 1014.4 - 0.0 - - - - - - -
24/08:30pm 26.7 SE 11 13 1014.0 - 0.0 - - - - - - -
24/08:00pm 26.6 SE 11 12 1013.8 - 0.0 - - - - - - -
24/07:30pm 26.7 SSE 11 13 1013.4 - 0.0 - - - - - - -
24/07:00pm 26.7 SSE 11 13 1013.2 - 0.0 - - - - - - -
24/06:30pm 26.7 SSE 11 13 1012.9 - 0.0 - - - - - - -

Other Formats:

Comma delimited format used in spreadsheet applications
http://www.bom.gov.au/fwo/IDQ60701/IDQ60701.94299.axf

JavaScript Object Notation format (JSON) in row-major order
http://www.bom.gov.au/fwo/IDQ60701/IDQ60701.94299.json